createdAt,value
2023-01-26T00:00:15.206Z,32.00
2023-01-26T00:03:03.251Z,28.00
2023-01-26T00:05:37.664Z,32.50
2023-01-26T00:08:07.266Z,18.00
2023-01-26T00:10:40.525Z,26.00
2023-01-26T00:13:11.221Z,36.00
2023-01-26T00:15:40.392Z,35.00
2023-01-26T00:18:12.869Z,43.00
2023-01-26T00:20:41.205Z,28.00
2023-01-26T00:23:09.101Z,31.50
2023-01-26T00:25:40.751Z,29.50
2023-01-26T00:28:08.737Z,31.00
2023-01-26T00:30:37.736Z,32.00
2023-01-26T00:33:06.861Z,32.00
2023-01-26T00:35:36.886Z,25.00
2023-01-26T00:38:09.208Z,33.00
2023-01-26T00:40:37.225Z,30.50
2023-01-26T00:43:06.800Z,33.00
2023-01-26T00:45:36.136Z,30.00
2023-01-26T00:48:07.340Z,29.00
2023-01-26T00:50:40.731Z,19.00
2023-01-26T00:53:11.016Z,19.00
2023-01-26T00:55:40.093Z,20.50
2023-01-26T00:58:09.523Z,21.33
2023-01-26T01:00:39.194Z,25.00
2023-01-26T01:03:07.694Z,17.00
2023-01-26T01:05:36.100Z,35.00
2023-01-26T01:08:04.303Z,25.00
2023-01-26T01:10:32.275Z,24.00
2023-01-26T01:15:29.494Z,23.00
2023-01-26T01:17:58.620Z,25.00
2023-01-26T01:20:46.948Z,24.00
2023-01-26T01:23:14.838Z,25.50
2023-01-26T01:25:47.895Z,26.00
2023-01-26T01:28:15.952Z,19.00
2023-01-26T01:30:44.142Z,26.00
2023-01-26T01:33:12.182Z,31.00
2023-01-26T01:35:43.730Z,23.00
2023-01-26T01:38:11.747Z,22.50
2023-01-26T01:40:43.689Z,19.00
2023-01-26T01:43:12.868Z,16.00
2023-01-26T01:45:47.074Z,22.00
2023-01-26T01:48:24.728Z,15.00
2023-01-26T01:51:00.431Z,18.00
2023-01-26T01:53:36.693Z,13.00
2023-01-26T01:56:12.427Z,23.50
2023-01-26T01:58:43.959Z,14.50
2023-01-26T02:01:13.022Z,18.50
2023-01-26T02:03:45.231Z,21.00
2023-01-26T02:06:19.095Z,33.00
2023-01-26T02:08:58.934Z,21.00
2023-01-26T02:11:40.501Z,21.50
2023-01-26T02:14:11.960Z,16.00
2023-01-26T02:16:44.718Z,18.00
2023-01-26T02:19:26.380Z,23.00
2023-01-26T02:22:04.653Z,21.00
2023-01-26T02:24:38.008Z,22.00
2023-01-26T02:27:07.449Z,16.00
2023-01-26T02:29:35.421Z,8.00
2023-01-26T02:32:03.648Z,27.00
2023-01-26T02:34:32.684Z,26.50
2023-01-26T02:37:01.916Z,18.50
2023-01-26T02:39:29.900Z,19.00
2023-01-26T02:42:18.180Z,15.00
2023-01-26T02:44:52.631Z,19.00
2023-01-26T02:47:26.789Z,20.00
2023-01-26T02:49:58.320Z,26.00
2023-01-26T02:52:31.119Z,24.00
2023-01-26T02:55:28.903Z,26.33
2023-01-26T02:58:00.824Z,22.00
2023-01-26T03:00:33.236Z,16.50
2023-01-26T03:03:02.506Z,42.00
2023-01-26T03:05:32.945Z,22.50
2023-01-26T03:08:01.321Z,26.00
2023-01-26T03:10:36.196Z,22.00
2023-01-26T03:13:04.747Z,16.50
2023-01-26T03:15:43.422Z,17.00
2023-01-26T03:18:35.267Z,18.00
2023-01-26T03:21:31.472Z,18.00
2023-01-26T03:24:19.239Z,15.00
2023-01-26T03:27:08.486Z,18.33
2023-01-26T03:29:39.480Z,15.00
2023-01-26T03:32:07.935Z,15.50
2023-01-26T03:34:36.366Z,16.00
2023-01-26T03:37:07.029Z,18.00
2023-01-26T03:40:00.604Z,16.00
2023-01-26T03:42:50.048Z,19.00
2023-01-26T03:45:36.707Z,15.00
2023-01-26T03:48:30.866Z,16.50
2023-01-26T03:51:18.526Z,21.50
2023-01-26T03:54:07.377Z,16.00
2023-01-26T03:56:36.784Z,19.00
2023-01-26T03:59:15.591Z,19.00
2023-01-26T04:02:06.086Z,24.00
2023-01-26T04:04:54.455Z,26.00
2023-01-26T04:07:46.095Z,27.50
2023-01-26T04:10:15.928Z,22.00
2023-01-26T04:12:45.145Z,18.00
2023-01-26T04:15:37.840Z,14.00
2023-01-26T04:18:26.734Z,16.00
2023-01-26T04:21:15.194Z,19.50
2023-01-26T04:23:45.223Z,13.50
2023-01-26T04:26:17.156Z,17.00
2023-01-26T04:28:46.404Z,12.50
2023-01-26T04:31:17.100Z,28.50
2023-01-26T04:33:47.848Z,19.00
2023-01-26T04:36:19.833Z,22.50
2023-01-26T04:38:52.788Z,19.00
2023-01-26T04:41:23.758Z,14.00
2023-01-26T04:44:08.754Z,20.50
2023-01-26T04:46:40.789Z,23.50
2023-01-26T04:49:10.426Z,21.33
2023-01-26T04:51:41.749Z,23.50
2023-01-26T04:54:13.693Z,20.00
2023-01-26T04:56:44.849Z,20.00
2023-01-26T04:59:14.798Z,23.00
2023-01-26T05:01:44.931Z,24.00
2023-01-26T05:04:13.225Z,23.00
2023-01-26T05:06:44.563Z,21.00
2023-01-26T05:09:12.948Z,22.00
2023-01-26T05:11:43.164Z,25.50
2023-01-26T05:14:29.836Z,19.00
2023-01-26T05:16:58.006Z,20.00
2023-01-26T05:19:45.445Z,22.00
2023-01-26T05:22:20.866Z,21.00
2023-01-26T05:25:08.210Z,16.00
2023-01-26T05:27:47.766Z,25.00
2023-01-26T05:30:17.369Z,31.00
2023-01-26T05:32:46.740Z,20.00
2023-01-26T05:35:16.769Z,19.50
2023-01-26T05:37:47.197Z,20.00
2023-01-26T05:40:17.036Z,20.00
2023-01-26T05:42:46.642Z,23.00
2023-01-26T05:45:42.243Z,24.00
2023-01-26T05:48:12.349Z,25.50
2023-01-26T05:50:42.336Z,17.00
2023-01-26T05:53:16.057Z,27.00
2023-01-26T05:55:44.450Z,22.50
2023-01-26T05:58:13.923Z,24.50
2023-01-26T06:00:43.093Z,33.00
2023-01-26T06:03:16.828Z,23.00
2023-01-26T06:05:53.126Z,29.00
2023-01-26T06:08:29.792Z,36.00
2023-01-26T06:11:20.658Z,25.50
2023-01-26T06:14:14.108Z,33.50
2023-01-26T06:16:43.103Z,34.00
2023-01-26T06:19:15.119Z,32.00
2023-01-26T06:21:47.169Z,36.00
2023-01-26T06:24:19.108Z,27.50
2023-01-26T06:29:30.993Z,30.50
2023-01-26T06:32:01.074Z,35.00
2023-01-26T06:34:36.129Z,30.00
2023-01-26T06:37:14.127Z,34.00
2023-01-26T06:39:42.586Z,30.50
2023-01-26T06:42:13.219Z,17.00
2023-01-26T06:44:43.660Z,24.00
2023-01-26T06:47:16.018Z,28.50
2023-01-26T06:49:45.283Z,35.00
2023-01-26T06:52:27.981Z,50.00
2023-01-26T06:55:14.759Z,46.00
2023-01-26T06:58:13.875Z,42.00
2023-01-26T07:01:06.143Z,38.50
2023-01-26T07:03:38.901Z,39.00
2023-01-26T07:06:13.655Z,40.00
2023-01-26T07:08:41.855Z,33.50
2023-01-26T07:11:11.396Z,46.00
2023-01-26T07:13:43.990Z,55.00
2023-01-26T07:16:16.368Z,38.00
2023-01-26T07:18:44.963Z,34.00
2023-01-26T07:21:15.525Z,32.00
2023-01-26T07:23:53.568Z,32.50
2023-01-26T07:26:24.882Z,40.50
2023-01-26T07:28:53.081Z,44.00
2023-01-26T07:31:28.883Z,36.00
2023-01-26T07:33:57.316Z,31.00
2023-01-26T07:36:25.292Z,44.50
2023-01-26T07:38:53.279Z,48.00
2023-01-26T07:41:22.368Z,30.00
2023-01-26T07:43:52.237Z,38.00
2023-01-26T07:46:25.800Z,37.00
2023-01-26T07:48:54.146Z,47.00
2023-01-26T07:51:22.393Z,38.00
2023-01-26T07:53:54.510Z,41.00
2023-01-26T07:56:22.661Z,38.67
2023-01-26T07:58:53.486Z,35.00
2023-01-26T08:01:26.071Z,37.00
2023-01-26T08:03:56.423Z,38.67
2023-01-26T08:06:29.053Z,42.00
2023-01-26T08:08:58.592Z,41.00
2023-01-26T08:11:28.904Z,40.00
2023-01-26T08:14:04.176Z,37.00
2023-01-26T08:16:33.673Z,51.00
2023-01-26T08:19:04.162Z,46.00
2023-01-26T08:21:33.656Z,48.00
2023-01-26T08:24:03.729Z,49.00
2023-01-26T08:26:32.844Z,40.00
2023-01-26T08:29:01.160Z,37.00
2023-01-26T08:31:30.379Z,51.50
2023-01-26T08:34:00.664Z,42.00
2023-01-26T08:36:30.029Z,41.50
2023-01-26T08:38:58.654Z,45.00
2023-01-26T08:41:30.269Z,37.00
2023-01-26T08:43:59.919Z,45.00
2023-01-26T08:46:32.069Z,48.00
2023-01-26T08:49:03.005Z,35.00
2023-01-26T08:51:37.573Z,42.00
2023-01-26T08:54:08.526Z,40.50
2023-01-26T08:56:36.794Z,51.00
2023-01-26T08:59:06.027Z,47.00
2023-01-26T09:01:36.341Z,42.33
2023-01-26T09:04:07.938Z,38.67
2023-01-26T09:06:37.584Z,48.00
2023-01-26T09:09:13.322Z,39.00
2023-01-26T09:11:41.746Z,44.50
2023-01-26T09:14:09.904Z,45.33
2023-01-26T09:16:38.153Z,43.50
2023-01-26T09:19:07.790Z,45.67
2023-01-26T09:21:36.305Z,37.50
2023-01-26T09:26:39.287Z,30.00
2023-01-26T09:29:10.881Z,44.00
2023-01-26T09:31:40.649Z,37.00
2023-01-26T09:34:09.854Z,48.50
2023-01-26T09:36:43.133Z,49.50
2023-01-26T09:39:12.782Z,30.00
2023-01-26T09:42:11.042Z,37.50
2023-01-26T09:44:54.037Z,45.00
2023-01-26T09:47:50.810Z,41.00
2023-01-26T09:50:31.562Z,38.50
2023-01-26T09:53:14.887Z,22.50
2023-01-26T09:55:50.906Z,36.00
2023-01-26T09:58:39.990Z,23.00
2023-01-26T10:01:22.125Z,32.00
2023-01-26T10:04:25.476Z,31.50
2023-01-26T10:06:57.094Z,37.50
2023-01-26T10:09:53.108Z,40.50
2023-01-26T10:12:35.412Z,5.50
2023-01-26T10:15:16.822Z,27.50
2023-01-26T10:17:48.570Z,32.50
2023-01-26T10:20:30.281Z,31.00
2023-01-26T10:23:07.139Z,25.00
2023-01-26T10:25:41.393Z,35.00
2023-01-26T10:28:20.760Z,40.00
2023-01-26T10:30:51.478Z,34.00
2023-01-26T10:33:37.215Z,32.00
2023-01-26T10:36:13.455Z,48.67
2023-01-26T10:38:44.502Z,36.00
2023-01-26T10:43:55.882Z,32.50
2023-01-26T10:46:38.051Z,29.00
2023-01-26T10:49:11.684Z,26.00
2023-01-26T10:51:43.219Z,34.50
2023-01-26T10:54:16.027Z,32.00
2023-01-26T10:56:51.600Z,39.00
2023-01-26T10:59:48.564Z,42.67
2023-01-26T11:02:20.106Z,37.00
2023-01-26T11:05:07.344Z,52.50
2023-01-26T11:07:44.963Z,36.00
2023-01-26T11:10:20.925Z,31.00
2023-01-26T11:12:50.537Z,32.00
2023-01-26T11:15:24.538Z,34.33
2023-01-26T11:18:14.374Z,36.00
2023-01-26T11:21:13.389Z,34.00
2023-01-26T11:23:51.507Z,48.00
2023-01-26T11:26:43.046Z,36.00
2023-01-26T11:29:47.063Z,25.00
2023-01-26T11:32:27.446Z,52.50
2023-01-26T11:35:30.269Z,40.00
2023-01-26T11:38:23.527Z,50.50
2023-01-26T11:41:08.487Z,40.00
2023-01-26T11:43:56.691Z,50.67
2023-01-26T11:46:48.117Z,33.00
2023-01-26T11:49:36.518Z,38.00
2023-01-26T11:52:06.927Z,38.00
2023-01-26T11:54:51.288Z,27.67
2023-01-26T11:58:01.760Z,30.50
2023-01-26T12:00:50.679Z,33.00
2023-01-26T12:03:35.638Z,34.00
2023-01-26T12:06:15.568Z,37.00
2023-01-26T12:09:10.929Z,33.33
2023-01-26T12:11:52.042Z,30.00
2023-01-26T12:14:46.473Z,30.67
2023-01-26T12:17:48.376Z,32.00
2023-01-26T12:20:52.632Z,29.00
2023-01-26T12:23:21.778Z,32.50
2023-01-26T12:26:00.441Z,37.50
2023-01-26T12:28:43.392Z,35.50
2023-01-26T12:31:27.178Z,26.00
2023-01-26T12:34:00.043Z,35.00
2023-01-26T12:36:37.317Z,33.50
2023-01-26T12:39:11.575Z,33.00
2023-01-26T12:42:05.267Z,35.00
2023-01-26T12:45:00.518Z,31.50
2023-01-26T12:47:32.215Z,37.00
2023-01-26T12:50:35.172Z,49.00
2023-01-26T12:53:04.545Z,25.50
2023-01-26T12:56:23.858Z,34.00
2023-01-26T12:58:55.954Z,32.00
2023-01-26T13:01:36.692Z,38.00
2023-01-26T13:04:13.023Z,29.00
2023-01-26T13:06:44.884Z,32.00
2023-01-26T13:09:17.461Z,28.00
2023-01-26T13:11:54.450Z,33.00
2023-01-26T13:14:27.669Z,30.00
2023-01-26T13:16:57.744Z,39.00
2023-01-26T13:19:38.120Z,25.00
2023-01-26T13:22:26.809Z,33.00
2023-01-26T13:25:19.213Z,36.00
2023-01-26T13:27:59.388Z,30.00
2023-01-26T13:30:34.170Z,25.00
2023-01-26T13:33:13.064Z,34.00
2023-01-26T13:35:46.675Z,36.00
2023-01-26T13:38:39.393Z,37.00
2023-01-26T13:41:21.165Z,39.00
2023-01-26T13:44:17.649Z,43.00
2023-01-26T13:47:16.333Z,46.00
2023-01-26T13:49:45.400Z,43.00
2023-01-26T13:52:24.051Z,39.00
2023-01-26T13:55:02.297Z,36.00
2023-01-26T13:57:31.646Z,46.00
2023-01-26T14:00:01.301Z,46.00
2023-01-26T14:02:38.871Z,37.00
2023-01-26T14:05:07.752Z,43.50
2023-01-26T14:07:48.053Z,47.00
2023-01-26T14:10:20.690Z,36.00
2023-01-26T14:12:56.788Z,30.00
2023-01-26T14:15:29.215Z,29.00
2023-01-26T14:18:05.367Z,35.50
2023-01-26T14:20:35.661Z,34.67
2023-01-26T14:23:15.133Z,34.00
2023-01-26T14:25:57.348Z,34.00
2023-01-26T14:28:34.479Z,43.33
2023-01-26T14:31:26.711Z,35.67
2023-01-26T14:33:58.868Z,38.00
2023-01-26T14:36:39.199Z,48.00
2023-01-26T14:39:20.177Z,41.00
2023-01-26T14:41:50.020Z,46.00
2023-01-26T14:44:22.834Z,48.00
2023-01-26T14:47:10.115Z,53.50
2023-01-26T14:49:50.707Z,47.67
2023-01-26T14:52:24.100Z,39.00
2023-01-26T14:55:06.519Z,31.00
2023-01-26T14:57:35.863Z,23.00
2023-01-26T15:00:12.942Z,40.00
2023-01-26T15:02:47.666Z,45.00
2023-01-26T15:05:18.931Z,48.00
2023-01-26T15:08:03.011Z,38.00
2023-01-26T15:10:42.239Z,39.00
2023-01-26T15:13:13.635Z,31.00
2023-01-26T15:15:49.168Z,34.00
2023-01-26T15:18:21.234Z,33.50
2023-01-26T15:21:11.001Z,40.50
2023-01-26T15:23:53.356Z,37.00
2023-01-26T15:26:30.291Z,42.50
2023-01-26T15:29:03.099Z,41.00
2023-01-26T15:31:38.195Z,39.50
2023-01-26T15:34:34.298Z,36.00
2023-01-26T15:37:49.045Z,40.00
2023-01-26T15:40:17.252Z,37.00
2023-01-26T15:42:46.295Z,47.33
2023-01-26T15:45:36.623Z,51.50
2023-01-26T15:48:04.871Z,47.50
2023-01-26T15:50:34.049Z,50.00
2023-01-26T15:53:03.055Z,50.00
2023-01-26T15:55:33.385Z,46.00
2023-01-26T15:58:04.707Z,57.50
2023-01-26T16:00:34.254Z,46.00
2023-01-26T16:03:07.376Z,45.00
2023-01-26T16:05:38.659Z,52.00
2023-01-26T16:08:09.446Z,52.50
2023-01-26T16:10:38.493Z,53.00
2023-01-26T16:13:13.355Z,70.00
2023-01-26T16:15:50.179Z,68.00
2023-01-26T16:18:19.090Z,52.50
2023-01-26T16:20:50.750Z,59.67
2023-01-26T16:23:24.140Z,54.50
2023-01-26T16:25:53.751Z,68.00
2023-01-26T16:28:23.569Z,63.00
2023-01-26T16:30:53.924Z,60.33
2023-01-26T16:33:24.835Z,57.00
2023-01-26T16:35:54.893Z,67.00
2023-01-26T16:38:23.099Z,67.00
2023-01-26T16:40:53.983Z,67.00
2023-01-26T16:43:29.476Z,65.00
2023-01-26T16:48:26.452Z,59.50
2023-01-26T16:51:11.951Z,58.00
2023-01-26T16:53:39.959Z,61.00
2023-01-26T16:56:13.726Z,51.00
2023-01-26T16:58:41.886Z,58.00
2023-01-26T17:01:24.979Z,62.00
2023-01-26T17:03:56.223Z,63.00
2023-01-26T17:06:27.017Z,63.00
2023-01-26T17:08:55.702Z,59.50
2023-01-26T17:11:28.110Z,65.50
2023-01-26T17:13:59.404Z,57.00
2023-01-26T17:16:30.526Z,72.33
2023-01-26T17:19:09.083Z,70.50
2023-01-26T17:21:42.547Z,64.67
2023-01-26T17:24:16.274Z,67.50
2023-01-26T17:26:46.822Z,57.50
2023-01-26T17:29:16.095Z,63.00
2023-01-26T17:31:45.480Z,59.00
2023-01-26T17:34:15.653Z,57.00
2023-01-26T17:36:53.810Z,46.00
2023-01-26T17:39:24.664Z,54.00
2023-01-26T17:41:55.282Z,45.50
2023-01-26T17:44:26.251Z,48.00
2023-01-26T17:46:54.362Z,67.00
2023-01-26T17:49:22.970Z,60.00
2023-01-26T17:51:56.242Z,51.00
2023-01-26T17:54:32.140Z,50.50
2023-01-26T17:57:00.506Z,48.67
2023-01-26T17:59:34.203Z,49.00
2023-01-26T18:02:13.975Z,48.50
2023-01-26T18:04:47.092Z,64.00
2023-01-26T18:07:17.879Z,63.00
2023-01-26T18:09:48.387Z,51.50
2023-01-26T18:12:20.033Z,59.00
2023-01-26T18:14:55.187Z,45.00
2023-01-26T18:20:47.379Z,47.00
2023-01-26T18:23:47.589Z,44.50
2023-01-26T18:26:32.710Z,41.00
2023-01-26T18:29:21.514Z,55.00
2023-01-26T18:32:11.307Z,57.00
2023-01-26T18:35:15.738Z,47.00
2023-01-26T18:37:43.815Z,51.00
2023-01-26T18:40:47.844Z,48.00
2023-01-26T18:43:18.984Z,54.50
2023-01-26T18:46:18.753Z,49.00
2023-01-26T18:49:20.370Z,39.00
2023-01-26T18:53:43.698Z,40.00
2023-01-26T18:56:18.206Z,51.50
2023-01-26T18:58:53.687Z,42.00
2023-01-26T19:01:23.890Z,33.00
2023-01-26T19:04:05.029Z,40.00
2023-01-26T19:06:47.074Z,31.00
2023-01-26T19:09:17.209Z,35.00
2023-01-26T19:11:45.342Z,39.00
2023-01-26T19:14:21.800Z,36.00
2023-01-26T19:16:55.820Z,39.00
2023-01-26T19:19:26.053Z,36.50
2023-01-26T19:21:54.099Z,38.50
2023-01-26T19:24:23.295Z,37.00
2023-01-26T19:26:59.675Z,32.50
2023-01-26T19:29:36.765Z,33.50
2023-01-26T19:32:05.211Z,30.50
2023-01-26T19:35:14.559Z,29.00
2023-01-26T19:37:42.977Z,26.50
2023-01-26T19:40:12.658Z,30.50
2023-01-26T19:42:40.803Z,27.00
2023-01-26T19:45:09.468Z,28.00
2023-01-26T19:47:44.482Z,25.67
2023-01-26T19:50:16.588Z,31.00
2023-01-26T19:52:45.610Z,34.00
2023-01-26T19:55:15.792Z,24.00
2023-01-26T19:57:44.728Z,27.00
2023-01-26T20:00:14.689Z,36.00
2023-01-26T20:02:43.121Z,34.50
2023-01-26T20:05:11.469Z,30.00
2023-01-26T20:07:42.420Z,29.00
2023-01-26T20:10:22.787Z,25.00
2023-01-26T20:12:50.713Z,25.00
2023-01-26T20:15:18.634Z,20.00
2023-01-26T20:17:47.736Z,31.00
2023-01-26T20:20:18.165Z,21.00
2023-01-26T20:22:48.255Z,28.00
2023-01-26T20:25:16.176Z,21.50
2023-01-26T20:27:46.477Z,24.33
2023-01-26T20:30:15.772Z,29.00
2023-01-26T20:32:44.341Z,28.50
2023-01-26T20:35:14.047Z,30.50
2023-01-26T20:37:44.842Z,23.00
2023-01-26T20:40:13.523Z,25.00
2023-01-26T20:42:41.748Z,19.00
2023-01-26T20:45:15.815Z,21.00
2023-01-26T20:47:43.930Z,37.33
2023-01-26T20:50:14.393Z,28.00
2023-01-26T20:52:48.150Z,36.50
2023-01-26T20:55:16.405Z,37.00
2023-01-26T20:57:45.634Z,29.33
2023-01-26T21:00:20.512Z,36.50
2023-01-26T21:02:51.694Z,40.00
2023-01-26T21:05:24.275Z,34.50
2023-01-26T21:07:54.338Z,38.00
2023-01-26T21:10:24.764Z,33.50
2023-01-26T21:12:53.910Z,35.00
2023-01-26T21:15:22.195Z,40.50
2023-01-26T21:17:50.421Z,49.00
2023-01-26T21:20:57.223Z,45.50
2023-01-26T21:23:34.026Z,46.00
2023-01-26T21:26:05.289Z,38.50
2023-01-26T21:28:34.391Z,47.00
2023-01-26T21:31:15.388Z,37.00
2023-01-26T21:33:46.329Z,39.00
2023-01-26T21:38:52.172Z,37.50
2023-01-26T21:41:44.311Z,41.00
2023-01-26T21:44:53.457Z,40.00
2023-01-26T21:47:21.417Z,34.00
2023-01-26T21:49:58.833Z,44.00
2023-01-26T21:52:45.599Z,34.00
2023-01-26T21:55:13.640Z,32.50
2023-01-26T21:58:07.390Z,38.00
2023-01-26T22:03:07.937Z,38.00
2023-01-26T22:05:54.171Z,37.50
2023-01-26T22:08:24.280Z,41.00
2023-01-26T22:10:58.867Z,39.00
2023-01-26T22:13:27.119Z,43.00
2023-01-26T22:15:58.892Z,43.50
2023-01-26T22:18:31.664Z,45.00
2023-01-26T22:20:59.747Z,45.00
2023-01-26T22:23:37.539Z,44.50
2023-01-26T22:26:14.878Z,50.00
2023-01-26T22:28:50.410Z,63.00
2023-01-26T22:32:03.875Z,53.50
2023-01-26T22:34:34.228Z,36.00
2023-01-26T22:37:03.480Z,55.00
2023-01-26T22:40:05.977Z,51.67
2023-01-26T22:42:41.809Z,55.00
2023-01-26T22:45:10.324Z,59.00
2023-01-26T22:47:40.811Z,40.00
2023-01-26T22:50:15.553Z,46.00
2023-01-26T22:52:47.601Z,50.00
2023-01-26T22:55:16.817Z,47.00
2023-01-26T22:58:17.800Z,47.67
2023-01-26T23:00:47.019Z,53.00
2023-01-26T23:03:16.021Z,51.00
2023-01-26T23:05:48.109Z,52.00
2023-01-26T23:08:17.313Z,50.00
2023-01-26T23:10:46.394Z,46.00
2023-01-26T23:13:21.689Z,45.50
2023-01-26T23:15:55.925Z,50.33
2023-01-26T23:18:24.085Z,52.00
2023-01-26T23:20:58.606Z,55.33
2023-01-26T23:23:35.702Z,44.00
2023-01-26T23:26:04.164Z,63.00
2023-01-26T23:28:37.912Z,56.00
2023-01-26T23:31:09.623Z,48.00
2023-01-26T23:33:40.235Z,52.00
2023-01-26T23:36:12.078Z,52.00
2023-01-26T23:38:47.733Z,38.00
2023-01-26T23:41:17.543Z,60.00
2023-01-26T23:43:48.775Z,56.00
2023-01-26T23:46:17.871Z,46.50
2023-01-26T23:48:47.103Z,54.00
2023-01-26T23:51:17.271Z,49.50
2023-01-26T23:54:05.091Z,55.00
2023-01-26T23:56:36.709Z,52.00
2023-01-26T23:59:04.721Z,50.50
